Airport ID:K3K8
Update Time (UTC):07/12/2021 17:35
Wind Speed (Knots):10
Wind Direction (Magnetic):180
Temperature (°C):3
Dew Point (°C):-10
Humidity (%):39
Altimeter (inHg):29.98
Density Altitude (Feet):
Visibility:10+
Clouds (Hundreds of feet):CLR
Present Weather:
METAR:METAR K3K8 071735Z AUTO 19010KT 10SM CLR 03/M10 A2998 RMK AO2

The data displayed is for advisory purposes only and is not to be used for flight planning or operations.